createdAt,value
2023-04-08T00:00:55.004Z,101616.81
2023-04-08T00:03:22.984Z,101628.81
2023-04-08T00:05:51.096Z,101626.56
2023-04-08T00:08:19.097Z,101628.53
2023-04-08T00:10:47.090Z,101627.53
2023-04-08T00:13:14.945Z,101626.22
2023-04-08T00:15:43.069Z,101626.78
2023-04-08T00:18:12.485Z,101622.91
2023-04-08T00:20:40.508Z,101622.16
2023-04-08T00:23:08.420Z,101635.47
2023-04-08T00:25:36.272Z,101632.06
2023-04-08T00:28:04.201Z,101631.31
2023-04-08T00:30:32.079Z,101638.06
2023-04-08T00:33:00.044Z,101642.91
2023-04-08T00:35:30.417Z,101642.44
2023-04-08T00:37:58.396Z,101641.03
2023-04-08T00:40:26.320Z,101644.06
2023-04-08T00:43:01.996Z,101640.19
2023-04-08T00:45:29.878Z,101643.03
2023-04-08T00:47:57.995Z,101646.00
2023-04-08T00:50:25.906Z,101643.63
2023-04-08T00:52:55.022Z,101644.03
2023-04-08T00:55:22.913Z,101636.84
2023-04-08T00:57:50.765Z,101644.00
2023-04-08T01:00:18.577Z,101642.31
2023-04-08T01:02:52.612Z,101635.19
2023-04-08T01:05:29.907Z,101635.34
2023-04-08T01:08:03.043Z,101625.25
2023-04-08T01:10:34.599Z,101641.28
2023-04-08T01:13:06.256Z,101632.81
2023-04-08T01:15:37.005Z,101642.94
2023-04-08T01:18:08.315Z,101639.44
2023-04-08T01:20:36.525Z,101644.66
2023-04-08T01:23:14.253Z,101641.53
2023-04-08T01:25:47.394Z,101652.31
2023-04-08T01:28:18.884Z,101647.06
2023-04-08T01:30:47.959Z,101648.03
2023-04-08T01:33:18.805Z,101641.91
2023-04-08T01:35:47.401Z,101635.41
2023-04-08T01:38:19.172Z,101650.31
2023-04-08T01:40:49.782Z,101646.22
2023-04-08T01:43:19.154Z,101641.59
2023-04-08T01:45:49.053Z,101643.59
2023-04-08T01:48:17.437Z,101646.63
2023-04-08T01:50:46.528Z,101636.91
2023-04-08T01:53:15.026Z,101631.38
2023-04-08T01:55:44.306Z,101630.09
2023-04-08T01:58:21.276Z,101619.13
2023-04-08T02:00:50.553Z,101625.97
2023-04-08T02:03:21.307Z,101616.19
2023-04-08T02:05:49.364Z,101618.59
2023-04-08T02:08:17.158Z,101617.47
2023-04-08T02:10:44.927Z,101618.22
2023-04-08T02:13:12.755Z,101625.50
2023-04-08T02:15:47.387Z,101626.19
2023-04-08T02:18:18.071Z,101628.25
2023-04-08T02:20:51.490Z,101633.72
2023-04-08T02:23:22.662Z,101632.06
2023-04-08T02:25:51.531Z,101633.53
2023-04-08T02:28:20.751Z,101634.56
2023-04-08T02:30:52.286Z,101633.41
2023-04-08T02:33:22.482Z,101630.41
2023-04-08T02:35:54.570Z,101625.63
2023-04-08T02:38:24.237Z,101638.66
2023-04-08T02:40:52.457Z,101627.81
2023-04-08T02:43:20.208Z,101632.59
2023-04-08T02:45:48.136Z,101638.28
2023-04-08T02:48:17.801Z,101650.94
2023-04-08T02:50:45.592Z,101642.44
2023-04-08T02:53:13.470Z,101636.19
2023-04-08T02:55:41.669Z,101637.78
2023-04-08T02:58:09.476Z,101645.72
2023-04-08T03:00:39.687Z,101643.41
2023-04-08T03:03:07.717Z,101653.19
2023-04-08T03:05:36.965Z,101648.06
2023-04-08T03:08:06.732Z,101654.28
2023-04-08T03:10:34.642Z,101643.88
2023-04-08T03:13:02.391Z,101663.78
2023-04-08T03:15:30.297Z,101656.19
2023-04-08T03:17:58.181Z,101662.47
2023-04-08T03:20:26.344Z,101659.75
2023-04-08T03:22:55.448Z,101654.00
2023-04-08T03:25:23.207Z,101654.66
2023-04-08T03:27:51.042Z,101663.00
2023-04-08T03:30:19.073Z,101654.75
2023-04-08T03:32:46.935Z,101658.91
2023-04-08T03:35:14.716Z,101656.13
2023-04-08T03:37:42.502Z,101659.81
2023-04-08T03:40:13.233Z,101655.13
2023-04-08T03:42:41.236Z,101663.81
2023-04-08T03:45:09.763Z,101662.56
2023-04-08T03:47:37.604Z,101655.06
2023-04-08T03:50:05.952Z,101663.44
2023-04-08T03:52:33.646Z,101666.28
2023-04-08T03:55:01.414Z,101670.06
2023-04-08T03:57:30.629Z,101665.91
2023-04-08T03:59:58.492Z,101675.31
2023-04-08T04:02:26.342Z,101668.53
2023-04-08T04:04:54.345Z,101664.78
2023-04-08T04:07:22.289Z,101671.22
2023-04-08T04:09:54.068Z,101663.41
2023-04-08T04:12:21.832Z,101661.63
2023-04-08T04:14:51.287Z,101664.19
2023-04-08T04:17:19.129Z,101668.78
2023-04-08T04:19:47.055Z,101675.03
2023-04-08T04:22:15.003Z,101670.28
2023-04-08T04:24:48.302Z,101673.38
2023-04-08T04:27:17.580Z,101684.34
2023-04-08T04:29:45.457Z,101685.09
2023-04-08T04:32:14.562Z,101680.38
2023-04-08T04:34:42.441Z,101682.31
2023-04-08T04:37:10.947Z,101689.19
2023-04-08T04:39:38.706Z,101699.38
2023-04-08T04:42:06.688Z,101697.06
2023-04-08T04:44:34.512Z,101699.97
2023-04-08T04:47:02.509Z,101707.25
2023-04-08T04:49:31.642Z,101713.75
2023-04-08T04:51:59.401Z,101708.41
2023-04-08T04:54:27.222Z,101706.66
2023-04-08T04:56:55.081Z,101716.97
2023-04-08T04:59:22.873Z,101722.13
2023-04-08T05:01:50.722Z,101715.47
2023-04-08T05:04:18.559Z,101707.72
2023-04-08T05:06:47.739Z,101714.88
2023-04-08T05:09:15.583Z,101712.00
2023-04-08T05:11:43.546Z,101720.28
2023-04-08T05:14:11.456Z,101721.31
2023-04-08T05:16:39.681Z,101731.00
2023-04-08T05:19:07.652Z,101736.34
2023-04-08T05:21:35.756Z,101725.56
2023-04-08T05:24:05.180Z,101726.56
2023-04-08T05:26:33.106Z,101733.13
2023-04-08T05:29:00.928Z,101737.97
2023-04-08T05:31:29.634Z,101742.75
2023-04-08T05:33:57.435Z,101745.84
2023-04-08T05:36:26.338Z,101724.78
2023-04-08T05:38:54.116Z,101719.94
2023-04-08T05:41:23.190Z,101732.44
2023-04-08T05:43:50.944Z,101742.03
2023-04-08T05:46:18.764Z,101744.03
2023-04-08T05:48:46.828Z,101743.38
2023-04-08T05:51:15.450Z,101746.34
2023-04-08T05:53:43.405Z,101745.56
2023-04-08T05:56:11.361Z,101747.53
2023-04-08T05:58:41.031Z,101743.00
2023-04-08T06:01:08.799Z,101738.56
2023-04-08T06:03:36.730Z,101761.25
2023-04-08T06:06:04.907Z,101761.66
2023-04-08T06:08:32.793Z,101739.88
2023-04-08T06:11:00.785Z,101763.88
2023-04-08T06:13:56.977Z,101763.97
2023-04-08T06:16:24.770Z,101770.19
2023-04-08T06:18:52.982Z,101770.03
2023-04-08T06:21:21.622Z,101763.53
2023-04-08T06:23:49.434Z,101773.28
2023-04-08T06:26:18.038Z,101777.50
2023-04-08T06:28:47.208Z,101787.47
2023-04-08T06:31:14.926Z,101786.44
2023-04-08T06:33:42.634Z,101788.00
2023-04-08T06:36:11.200Z,101786.78
2023-04-08T06:38:39.167Z,101787.53
2023-04-08T06:41:07.607Z,101778.66
2023-04-08T06:43:37.921Z,101786.75
2023-04-08T06:46:07.644Z,101787.47
2023-04-08T06:48:37.510Z,101791.16
2023-04-08T06:51:05.833Z,101796.38
2023-04-08T06:53:33.724Z,101798.38
2023-04-08T06:56:01.909Z,101801.63
2023-04-08T06:58:29.795Z,101803.72
2023-04-08T07:00:57.764Z,101808.97
2023-04-08T07:03:26.965Z,101804.19
2023-04-08T07:05:55.160Z,101808.00
2023-04-08T07:08:22.926Z,101805.25
2023-04-08T07:10:50.673Z,101814.03
2023-04-08T07:13:18.382Z,101817.03
2023-04-08T07:15:46.094Z,101813.44
2023-04-08T07:18:14.021Z,101813.94
2023-04-08T07:20:43.156Z,101807.19
2023-04-08T07:23:10.931Z,101809.41
2023-04-08T07:25:38.699Z,101813.44
2023-04-08T07:28:07.533Z,101809.78
2023-04-08T07:30:35.291Z,101809.88
2023-04-08T07:33:03.095Z,101825.00
2023-04-08T07:35:31.904Z,101822.72
2023-04-08T07:38:01.142Z,101821.31
2023-04-08T07:40:29.804Z,101816.00
2023-04-08T07:42:57.656Z,101828.69
2023-04-08T07:45:25.487Z,101816.44
2023-04-08T07:47:53.252Z,101818.03
2023-04-08T07:50:21.427Z,101811.81
2023-04-08T07:52:49.212Z,101821.47
2023-04-08T07:55:18.539Z,101822.75
2023-04-08T07:57:46.644Z,101822.09
2023-04-08T08:00:20.812Z,101823.00
2023-04-08T08:02:49.192Z,101827.00
2023-04-08T08:05:17.172Z,101820.75
2023-04-08T08:07:45.720Z,101831.00
2023-04-08T08:10:13.459Z,101837.63
2023-04-08T08:12:42.830Z,101852.72
2023-04-08T08:15:11.694Z,101844.25
2023-04-08T08:17:39.507Z,101843.34
2023-04-08T08:20:08.670Z,101853.47
2023-04-08T08:22:41.808Z,101847.56
2023-04-08T08:25:19.693Z,101833.16
2023-04-08T08:27:49.078Z,101841.41
2023-04-08T08:30:18.485Z,101857.53
2023-04-08T08:32:47.214Z,101859.16
2023-04-08T08:35:15.242Z,101853.44
2023-04-08T08:37:43.215Z,101859.63
2023-04-08T08:40:12.115Z,101865.50
2023-04-08T08:42:40.709Z,101865.00
2023-04-08T08:45:11.009Z,101864.38
2023-04-08T08:47:38.929Z,101867.03
2023-04-08T08:50:07.808Z,101867.50
2023-04-08T08:52:35.545Z,101866.94
2023-04-08T08:55:13.049Z,101871.06
2023-04-08T08:57:51.354Z,101868.75
2023-04-08T09:00:20.644Z,101870.03
2023-04-08T09:02:48.655Z,101868.41
2023-04-08T09:05:16.732Z,101866.38
2023-04-08T09:07:44.875Z,101872.25
2023-04-08T09:10:12.790Z,101887.13
2023-04-08T09:12:55.739Z,101895.09
2023-04-08T09:15:24.944Z,101887.03
2023-04-08T09:17:52.956Z,101893.75
2023-04-08T09:20:20.763Z,101886.13
2023-04-08T09:22:59.371Z,101888.06
2023-04-08T09:25:28.214Z,101891.81
2023-04-08T09:27:56.238Z,101892.22
2023-04-08T09:30:27.794Z,101902.84
2023-04-08T09:32:57.098Z,101909.44
2023-04-08T09:35:26.047Z,101906.25
2023-04-08T09:37:53.908Z,101912.00
2023-04-08T09:40:21.851Z,101915.72
2023-04-08T09:42:52.395Z,101916.44
2023-04-08T09:45:20.858Z,101910.16
2023-04-08T09:47:58.342Z,101908.91
2023-04-08T09:50:32.293Z,101910.72
2023-04-08T09:53:03.315Z,101901.72
2023-04-08T09:55:35.794Z,101906.69
2023-04-08T09:58:07.985Z,101901.09
2023-04-08T10:00:41.149Z,101912.84
2023-04-08T10:03:15.982Z,101909.16
2023-04-08T10:05:44.880Z,101915.03
2023-04-08T10:08:12.636Z,101915.50
2023-04-08T10:10:41.701Z,101916.75
2023-04-08T10:13:09.980Z,101923.72
2023-04-08T10:15:40.832Z,101932.28
2023-04-08T10:18:34.904Z,101920.13
2023-04-08T10:21:03.525Z,101909.75
2023-04-08T10:23:59.182Z,101907.69
2023-04-08T10:26:38.176Z,101918.06
2023-04-08T10:29:42.626Z,101925.19
2023-04-08T10:32:13.902Z,101920.38
2023-04-08T10:34:53.803Z,101920.56
2023-04-08T10:37:21.492Z,101913.00
2023-04-08T10:39:55.494Z,101913.78
2023-04-08T10:42:28.757Z,101912.16
2023-04-08T10:45:01.421Z,101923.88
2023-04-08T10:47:29.193Z,101923.25
2023-04-08T10:49:58.307Z,101919.28
2023-04-08T10:52:27.506Z,101916.50
2023-04-08T10:54:55.771Z,101917.91
2023-04-08T10:57:26.963Z,101923.28
2023-04-08T10:59:54.777Z,101915.66
2023-04-08T11:02:22.631Z,101917.78
2023-04-08T11:04:50.842Z,101920.78
2023-04-08T11:07:22.687Z,101937.59
2023-04-08T11:09:50.611Z,101937.00
2023-04-08T11:12:19.134Z,101933.63
2023-04-08T11:14:48.499Z,101929.53
2023-04-08T11:17:17.807Z,101932.16
2023-04-08T11:19:45.823Z,101925.06
2023-04-08T11:22:14.474Z,101923.47
2023-04-08T11:24:44.168Z,101922.88
2023-04-08T11:27:12.123Z,101929.94
2023-04-08T11:29:40.018Z,101924.84
2023-04-08T11:32:08.920Z,101935.06
2023-04-08T11:34:40.340Z,101925.28
2023-04-08T11:37:08.074Z,101927.75
2023-04-08T11:39:36.383Z,101921.03
2023-04-08T11:42:05.517Z,101927.91
2023-04-08T11:44:33.490Z,101934.88
2023-04-08T11:47:10.344Z,101930.09
2023-04-08T11:49:52.852Z,101941.59
2023-04-08T11:52:38.896Z,101948.13
2023-04-08T11:55:07.606Z,101947.38
2023-04-08T11:57:37.652Z,101948.28
2023-04-08T12:00:06.910Z,101953.38
2023-04-08T12:02:38.598Z,101954.44
2023-04-08T12:05:07.691Z,101955.94
2023-04-08T12:07:35.597Z,101947.22
2023-04-08T12:10:03.344Z,101946.38
2023-04-08T12:12:31.120Z,101942.88
2023-04-08T12:15:00.266Z,101949.88
2023-04-08T12:17:28.145Z,101952.59
2023-04-08T12:19:56.256Z,101945.28
2023-04-08T12:22:26.429Z,101951.13
2023-04-08T12:24:54.188Z,101948.16
2023-04-08T12:27:21.911Z,101947.22
2023-04-08T12:29:53.318Z,101951.19
2023-04-08T12:32:22.980Z,101946.56
2023-04-08T12:34:52.917Z,101958.88
2023-04-08T12:37:23.747Z,101953.69
2023-04-08T12:39:51.587Z,101947.66
2023-04-08T12:42:19.353Z,101955.28
2023-04-08T12:44:47.219Z,101950.97
2023-04-08T12:47:15.064Z,101953.06
2023-04-08T12:49:49.873Z,101954.41
2023-04-08T12:52:21.002Z,101940.81
2023-04-08T12:54:48.834Z,101941.34
2023-04-08T12:57:19.483Z,101947.97
2023-04-08T12:59:47.670Z,101943.34
2023-04-08T13:02:15.584Z,101944.31
2023-04-08T13:04:44.839Z,101937.78
2023-04-08T13:07:12.583Z,101936.06
2023-04-08T13:09:40.627Z,101941.09
2023-04-08T13:12:08.745Z,101937.00
2023-04-08T13:14:39.514Z,101938.38
2023-04-08T13:17:07.326Z,101941.31
2023-04-08T13:19:38.013Z,101941.56
2023-04-08T13:22:07.184Z,101937.50
2023-04-08T13:24:34.995Z,101936.84
2023-04-08T13:27:03.540Z,101927.75
2023-04-08T13:29:31.353Z,101923.63
2023-04-08T13:31:59.258Z,101932.66
2023-04-08T13:34:27.064Z,101930.75
2023-04-08T13:36:54.821Z,101940.09
2023-04-08T13:39:24.028Z,101936.63
2023-04-08T13:41:52.314Z,101947.06
2023-04-08T13:44:20.139Z,101939.69
2023-04-08T13:46:47.980Z,101936.53
2023-04-08T13:49:16.180Z,101929.34
2023-04-08T13:51:46.981Z,101935.19
2023-04-08T13:54:14.783Z,101925.13
2023-04-08T13:56:43.877Z,101929.59
2023-04-08T13:59:11.634Z,101924.34
2023-04-08T14:01:40.599Z,101927.00
2023-04-08T14:04:08.477Z,101930.94
2023-04-08T14:06:36.547Z,101930.16
2023-04-08T14:09:04.457Z,101932.41
2023-04-08T14:11:32.236Z,101935.59
2023-04-08T14:14:01.455Z,101929.94
2023-04-08T14:16:30.986Z,101938.75
2023-04-08T14:18:58.944Z,101938.75
2023-04-08T14:21:26.862Z,101927.69
2023-04-08T14:23:54.737Z,101929.56
2023-04-08T14:26:22.648Z,101931.19
2023-04-08T14:28:50.933Z,101930.09
2023-04-08T14:31:20.276Z,101932.69
2023-04-08T14:33:48.138Z,101950.41
2023-04-08T14:36:16.061Z,101946.63
2023-04-08T14:38:43.865Z,101938.75
2023-04-08T14:41:11.613Z,101943.75
2023-04-08T14:43:39.420Z,101941.16
2023-04-08T14:46:07.401Z,101941.75
2023-04-08T14:48:36.477Z,101943.34
2023-04-08T14:51:04.334Z,101932.13
2023-04-08T14:53:32.078Z,101946.97
2023-04-08T14:55:59.813Z,101944.31
2023-04-08T15:00:55.709Z,101949.03
2023-04-08T15:03:23.794Z,101947.94
2023-04-08T15:06:01.235Z,101945.81
2023-04-08T15:08:29.168Z,101949.47
2023-04-08T15:10:56.971Z,101946.97
2023-04-08T15:13:24.829Z,101950.28
2023-04-08T15:15:52.804Z,101953.16
2023-04-08T15:18:20.864Z,101953.16
2023-04-08T15:20:48.615Z,101950.03
2023-04-08T15:23:18.016Z,101951.72
2023-04-08T15:25:46.289Z,101959.34
2023-04-08T15:28:14.146Z,101961.16
2023-04-08T15:30:42.126Z,101968.19
2023-04-08T15:33:10.089Z,101955.44
2023-04-08T15:35:38.931Z,101960.78
2023-04-08T15:38:07.748Z,101965.47
2023-04-08T15:40:38.934Z,101962.41
2023-04-08T15:43:06.705Z,101959.19
2023-04-08T15:45:34.500Z,101961.56
2023-04-08T15:48:02.355Z,101967.78
2023-04-08T15:50:31.348Z,101970.22
2023-04-08T15:52:59.294Z,101975.72
2023-04-08T15:55:27.094Z,101966.84
2023-04-08T15:57:57.133Z,101980.25
2023-04-08T16:00:25.057Z,101974.63
2023-04-08T16:02:53.135Z,101988.16
2023-04-08T16:05:21.463Z,101979.81
2023-04-08T16:07:49.506Z,101977.00
2023-04-08T16:10:17.505Z,101972.78
2023-04-08T16:12:46.169Z,101977.97
2023-04-08T16:15:15.370Z,101979.31
2023-04-08T16:17:43.194Z,101988.63
2023-04-08T16:20:12.260Z,101983.50
2023-04-08T16:22:40.028Z,101980.53
2023-04-08T16:25:08.697Z,101985.69
2023-04-08T16:27:36.990Z,101977.94
2023-04-08T16:30:05.467Z,101986.16
2023-04-08T16:32:34.623Z,102000.25
2023-04-08T16:35:02.467Z,101996.69
2023-04-08T16:37:30.460Z,101990.69
2023-04-08T16:39:58.453Z,101997.94
2023-04-08T16:42:26.570Z,101993.47
2023-04-08T16:44:57.112Z,102001.34
2023-04-08T16:47:25.115Z,101995.97
2023-04-08T16:49:54.613Z,102020.16
2023-04-08T16:52:23.261Z,102009.88
2023-04-08T16:54:52.255Z,102004.22
2023-04-08T16:57:20.006Z,102004.25
2023-04-08T16:59:48.065Z,102020.84
2023-04-08T17:02:16.097Z,102015.78
2023-04-08T17:04:44.021Z,102014.41
2023-04-08T17:07:14.555Z,102017.97
2023-04-08T17:09:42.630Z,102020.28
2023-04-08T17:12:10.435Z,102019.81
2023-04-08T17:14:38.266Z,102031.25
2023-04-08T17:17:06.121Z,102021.97
2023-04-08T17:19:33.910Z,102029.28
2023-04-08T17:22:03.680Z,102018.78
2023-04-08T17:24:33.015Z,102018.53
2023-04-08T17:27:01.078Z,102018.63
2023-04-08T17:29:28.867Z,102026.38
2023-04-08T17:31:56.692Z,102022.53
2023-04-08T17:34:24.858Z,102018.63
2023-04-08T17:36:52.788Z,102022.91
2023-04-08T17:39:20.608Z,102026.69
2023-04-08T17:41:49.694Z,102031.59
2023-04-08T17:44:17.613Z,102018.56
2023-04-08T17:46:45.536Z,102028.66
2023-04-08T17:49:14.198Z,102024.63
2023-04-08T17:51:42.188Z,102026.13
2023-04-08T17:54:10.079Z,102035.13
2023-04-08T17:56:37.843Z,102031.59
2023-04-08T17:59:07.277Z,102039.22
2023-04-08T18:01:37.167Z,102037.31
2023-04-08T18:04:06.725Z,102037.78
2023-04-08T18:06:34.653Z,102036.28
2023-04-08T18:09:06.215Z,102034.91
2023-04-08T18:11:34.007Z,102042.69
2023-04-08T18:14:01.838Z,102046.53
2023-04-08T18:16:31.192Z,102046.91
2023-04-08T18:18:59.232Z,102051.22
2023-04-08T18:21:27.217Z,102063.19
2023-04-08T18:23:56.396Z,102053.22
2023-04-08T18:26:26.992Z,102065.66
2023-04-08T18:28:55.201Z,102059.22
2023-04-08T18:31:26.682Z,102063.78
2023-04-08T18:33:55.946Z,102070.59
2023-04-08T18:36:23.744Z,102069.59
2023-04-08T18:38:51.868Z,102072.66
2023-04-08T18:41:23.240Z,102073.50
2023-04-08T18:43:51.175Z,102072.97
2023-04-08T18:46:20.228Z,102080.09
2023-04-08T18:48:49.128Z,102078.34
2023-04-08T18:51:27.195Z,102081.09
2023-04-08T18:53:55.219Z,102081.72
2023-04-08T18:56:23.034Z,102072.28
2023-04-08T18:58:54.523Z,102077.19
2023-04-08T19:01:24.540Z,102070.59
2023-04-08T19:03:52.981Z,102072.94
2023-04-08T19:06:26.128Z,102081.41
2023-04-08T19:08:53.950Z,102077.66
2023-04-08T19:11:31.852Z,102071.91
2023-04-08T19:13:59.961Z,102079.81
2023-04-08T19:16:27.748Z,102080.47
2023-04-08T19:18:57.226Z,102074.03
2023-04-08T19:21:30.013Z,102077.69
2023-04-08T19:24:00.193Z,102076.13
2023-04-08T19:26:28.132Z,102068.53
2023-04-08T19:28:58.067Z,102066.09
2023-04-08T19:31:26.030Z,102072.75
2023-04-08T19:33:54.016Z,102074.44
2023-04-08T19:36:21.988Z,102067.56
2023-04-08T19:38:51.105Z,102076.13
2023-04-08T19:41:19.091Z,102074.06
2023-04-08T19:43:47.663Z,102072.78
2023-04-08T19:46:15.922Z,102074.78
2023-04-08T19:48:44.375Z,102071.44
2023-04-08T19:51:17.006Z,102068.44
2023-04-08T19:53:44.939Z,102074.19
2023-04-08T19:56:14.611Z,102072.88
2023-04-08T19:58:42.533Z,102072.00
2023-04-08T20:01:10.374Z,102068.91
2023-04-08T20:03:38.327Z,102073.22
2023-04-08T20:06:06.080Z,102082.13
2023-04-08T20:08:34.600Z,102081.66
2023-04-08T20:11:04.615Z,102081.56
2023-04-08T20:13:34.109Z,102082.09
2023-04-08T20:16:02.825Z,102086.75
2023-04-08T20:18:30.710Z,102088.63
2023-04-08T20:20:59.560Z,102091.94
2023-04-08T20:23:28.470Z,102092.81
2023-04-08T20:25:56.617Z,102092.38
2023-04-08T20:28:25.650Z,102091.44
2023-04-08T20:30:54.901Z,102086.84
2023-04-08T20:33:22.650Z,102092.06
2023-04-08T20:35:53.127Z,102083.06
2023-04-08T20:38:21.624Z,102097.03
2023-04-08T20:40:50.468Z,102101.22
2023-04-08T20:43:18.278Z,102094.13
2023-04-08T20:45:46.124Z,102096.53
2023-04-08T20:48:16.542Z,102098.44
2023-04-08T20:50:44.974Z,102099.00
2023-04-08T20:53:12.831Z,102102.41
2023-04-08T20:55:40.644Z,102104.47
2023-04-08T20:58:08.434Z,102101.41
2023-04-08T21:00:36.177Z,102099.56
2023-04-08T21:03:04.268Z,102106.91
2023-04-08T21:05:37.902Z,102097.66
2023-04-08T21:08:07.832Z,102093.69
2023-04-08T21:10:35.762Z,102105.22
2023-04-08T21:13:03.946Z,102098.88
2023-04-08T21:15:33.023Z,102099.28
2023-04-08T21:18:01.250Z,102106.78
2023-04-08T21:20:29.138Z,102100.63
2023-04-08T21:22:59.472Z,102105.75
2023-04-08T21:25:31.058Z,102101.28
2023-04-08T21:28:05.049Z,102106.53
2023-04-08T21:30:33.056Z,102119.94
2023-04-08T21:33:01.758Z,102109.81
2023-04-08T21:35:31.843Z,102120.56
2023-04-08T21:38:03.337Z,102112.78
2023-04-08T21:40:31.593Z,102112.56
2023-04-08T21:43:00.689Z,102122.31
2023-04-08T21:45:28.873Z,102118.91
2023-04-08T21:47:58.602Z,102123.16
2023-04-08T21:50:26.518Z,102120.03
2023-04-08T21:52:54.426Z,102122.09
2023-04-08T21:55:23.770Z,102126.38
2023-04-08T21:57:51.607Z,102130.50
2023-04-08T22:00:19.405Z,102136.06
2023-04-08T22:02:47.530Z,102133.88
2023-04-08T22:05:15.550Z,102129.75
2023-04-08T22:07:43.526Z,102125.63
2023-04-08T22:10:12.495Z,102127.28
2023-04-08T22:12:41.662Z,102134.31
2023-04-08T22:15:11.135Z,102125.84
2023-04-08T22:17:39.201Z,102123.63
2023-04-08T22:20:07.932Z,102115.50
2023-04-08T22:22:35.722Z,102120.28
2023-04-08T22:25:03.558Z,102116.50
2023-04-08T22:27:31.409Z,102113.53
2023-04-08T22:30:01.168Z,102116.22
2023-04-08T22:32:29.235Z,102109.72
2023-04-08T22:34:57.154Z,102115.56
2023-04-08T22:37:25.565Z,102114.09
2023-04-08T22:39:53.650Z,102114.69
2023-04-08T22:42:21.785Z,102114.38
2023-04-08T22:44:49.874Z,102113.56
2023-04-08T22:47:19.318Z,102110.44
2023-04-08T22:49:47.299Z,102106.91
2023-04-08T22:52:15.671Z,102111.38
2023-04-08T22:54:44.073Z,102113.91
2023-04-08T22:57:12.220Z,102110.91
2023-04-08T22:59:40.595Z,102105.97
2023-04-08T23:02:08.665Z,102106.25
2023-04-08T23:04:38.434Z,102112.06
2023-04-08T23:07:06.248Z,102105.94
2023-04-08T23:09:34.282Z,102108.75
2023-04-08T23:12:02.720Z,102109.81
2023-04-08T23:14:30.693Z,102112.03
2023-04-08T23:16:58.972Z,102113.44
2023-04-08T23:19:27.269Z,102113.16
2023-04-08T23:21:57.545Z,102110.56
2023-04-08T23:24:25.484Z,102113.97
2023-04-08T23:26:53.488Z,102109.03
2023-04-08T23:29:21.784Z,102105.88
2023-04-08T23:31:49.654Z,102099.75
2023-04-08T23:34:17.950Z,102106.69
2023-04-08T23:36:46.035Z,102105.03
2023-04-08T23:39:15.818Z,102106.66
2023-04-08T23:41:43.891Z,102127.22
2023-04-08T23:44:14.803Z,102126.16
2023-04-08T23:46:42.942Z,102135.19
2023-04-08T23:49:11.635Z,102132.41
2023-04-08T23:51:40.187Z,102122.56
2023-04-08T23:54:08.123Z,102123.19
2023-04-08T23:56:37.335Z,102120.72
2023-04-08T23:59:05.537Z,102122.53
